createdAt,value
2022-10-28T00:00:15.721Z,23.00
2022-10-28T00:01:15.771Z,26.80
2022-10-28T00:02:15.777Z,25.60
2022-10-28T00:03:15.709Z,26.90
2022-10-28T00:04:15.714Z,26.00
2022-10-28T00:05:15.692Z,23.20
2022-10-28T00:06:15.697Z,19.30
2022-10-28T00:07:15.673Z,19.30
2022-10-28T00:08:15.698Z,27.80
2022-10-28T00:09:15.690Z,22.80
2022-10-28T00:10:15.656Z,20.60
2022-10-28T00:11:15.679Z,20.60
2022-10-28T00:12:15.701Z,19.80
2022-10-28T00:13:15.620Z,20.80
2022-10-28T00:14:15.638Z,16.20
2022-10-28T00:15:15.631Z,21.90
2022-10-28T00:16:15.624Z,21.80
2022-10-28T00:17:15.601Z,19.40
2022-10-28T00:18:15.579Z,23.90
2022-10-28T00:19:15.590Z,22.90
2022-10-28T00:20:15.594Z,21.70
2022-10-28T00:21:15.548Z,24.40
2022-10-28T00:22:15.543Z,25.40
2022-10-28T00:23:48.018Z,26.90
2022-10-28T00:24:15.582Z,22.60
2022-10-28T00:25:15.531Z,22.20
2022-10-28T00:26:15.535Z,20.20
2022-10-28T00:27:15.540Z,22.00
2022-10-28T00:28:15.509Z,22.60
2022-10-28T00:29:15.507Z,21.80
2022-10-28T00:30:15.510Z,24.60
2022-10-28T00:31:15.495Z,17.20
2022-10-28T00:32:15.502Z,18.20
2022-10-28T00:33:15.500Z,17.50
2022-10-28T00:34:15.550Z,17.20
2022-10-28T00:35:15.467Z,19.40
2022-10-28T00:36:15.464Z,25.30
2022-10-28T00:37:15.467Z,22.20
2022-10-28T00:38:15.455Z,17.40
2022-10-28T00:39:15.448Z,20.90
2022-10-28T00:40:15.426Z,23.80
2022-10-28T00:41:16.504Z,16.50
2022-10-28T00:42:15.417Z,21.20
2022-10-28T00:43:15.453Z,19.60
2022-10-28T00:44:15.463Z,21.70
2022-10-28T00:45:15.399Z,15.80
2022-10-28T00:46:15.412Z,21.40
2022-10-28T00:47:15.405Z,21.40
2022-10-28T00:48:15.395Z,22.70
2022-10-28T00:49:15.375Z,16.50
2022-10-28T00:50:15.371Z,20.60
2022-10-28T00:51:15.390Z,20.60
2022-10-28T00:52:15.347Z,20.50
2022-10-28T00:53:15.362Z,16.50
2022-10-28T00:54:15.343Z,20.40
2022-10-28T00:55:15.318Z,19.00
2022-10-28T00:56:15.363Z,19.70
2022-10-28T00:57:15.328Z,14.30
2022-10-28T00:58:15.322Z,15.60
2022-10-28T00:59:15.323Z,25.50
2022-10-28T01:00:15.295Z,21.50
2022-10-28T01:01:15.304Z,19.80
2022-10-28T01:02:15.398Z,23.10
2022-10-28T01:03:15.282Z,25.40
2022-10-28T01:04:15.264Z,23.00
2022-10-28T01:05:15.271Z,20.20
2022-10-28T01:06:15.248Z,17.40
2022-10-28T01:07:15.239Z,18.80
2022-10-28T01:08:15.246Z,17.10
2022-10-28T01:09:15.268Z,17.60
2022-10-28T01:10:15.210Z,20.80
2022-10-28T01:11:15.218Z,23.30
2022-10-28T01:12:15.207Z,27.80
2022-10-28T01:13:15.200Z,24.50
2022-10-28T01:14:15.190Z,21.20
2022-10-28T01:15:15.182Z,23.70
2022-10-28T01:16:15.162Z,18.90
2022-10-28T01:17:16.228Z,22.80
2022-10-28T01:18:15.166Z,14.30
2022-10-28T01:19:15.163Z,22.10
2022-10-28T01:20:15.150Z,22.60
2022-10-28T01:21:15.210Z,23.60
2022-10-28T01:22:15.135Z,23.30
2022-10-28T01:23:15.133Z,20.30
2022-10-28T01:24:15.134Z,19.80
2022-10-28T01:25:15.117Z,19.40
2022-10-28T01:26:15.114Z,19.80
2022-10-28T01:27:15.103Z,21.50
2022-10-28T01:28:15.110Z,19.80
2022-10-28T01:29:15.092Z,22.10
2022-10-28T01:30:15.094Z,22.10
2022-10-28T01:31:15.108Z,21.70
2022-10-28T01:32:16.063Z,23.60
2022-10-28T01:33:15.058Z,24.90
2022-10-28T01:34:15.042Z,20.70
2022-10-28T01:35:15.136Z,18.30
2022-10-28T01:36:15.030Z,20.80
2022-10-28T01:37:15.026Z,21.30
2022-10-28T01:38:15.018Z,21.90
2022-10-28T01:39:15.007Z,18.50
2022-10-28T01:40:15.014Z,17.90
2022-10-28T01:41:15.004Z,24.10
2022-10-28T01:42:14.990Z,21.10
2022-10-28T01:43:14.991Z,24.80
2022-10-28T01:44:14.978Z,21.50
2022-10-28T01:45:14.990Z,17.60
2022-10-28T01:46:14.965Z,15.90
2022-10-28T01:47:15.035Z,18.60
2022-10-28T01:48:14.950Z,19.00
2022-10-28T01:49:14.933Z,14.40
2022-10-28T01:50:14.946Z,17.30
2022-10-28T01:51:14.943Z,16.40
2022-10-28T01:52:14.926Z,17.30
2022-10-28T01:53:14.918Z,20.30
2022-10-28T01:54:14.918Z,20.30
2022-10-28T01:55:15.922Z,15.60
2022-10-28T01:56:14.910Z,14.80
2022-10-28T01:57:14.891Z,20.80
2022-10-28T01:58:14.877Z,19.30
2022-10-28T01:59:14.875Z,20.20
2022-10-28T02:00:14.878Z,17.20
2022-10-28T02:01:14.927Z,20.00
2022-10-28T02:02:15.850Z,20.60
2022-10-28T02:03:14.879Z,17.10
2022-10-28T02:04:14.835Z,17.90
2022-10-28T02:05:14.831Z,15.70
2022-10-28T02:06:14.863Z,15.50
2022-10-28T02:07:14.817Z,17.70
2022-10-28T02:08:14.802Z,18.70
2022-10-28T02:09:14.820Z,19.00
2022-10-28T02:10:14.800Z,18.90
2022-10-28T02:11:14.807Z,18.30
2022-10-28T02:12:14.795Z,19.60
2022-10-28T02:13:14.779Z,18.60
2022-10-28T02:14:14.775Z,20.80
2022-10-28T02:15:14.780Z,22.00
2022-10-28T02:16:14.767Z,22.60
2022-10-28T02:17:14.755Z,24.30
2022-10-28T02:18:14.779Z,26.40
2022-10-28T02:19:14.747Z,22.30
2022-10-28T02:20:14.726Z,28.20
2022-10-28T02:21:14.750Z,21.60
2022-10-28T02:22:14.711Z,16.50
2022-10-28T02:23:15.230Z,24.70
2022-10-28T02:24:14.747Z,28.50
2022-10-28T02:25:14.699Z,22.50
2022-10-28T02:26:14.681Z,21.50
2022-10-28T02:27:14.698Z,25.30
2022-10-28T02:28:14.675Z,19.80
2022-10-28T02:29:14.671Z,22.00
2022-10-28T02:30:14.685Z,25.50
2022-10-28T02:31:14.666Z,21.60
2022-10-28T02:32:14.641Z,26.80
2022-10-28T02:33:14.641Z,23.40
2022-10-28T02:34:14.641Z,22.80
2022-10-28T02:35:14.625Z,25.10
2022-10-28T02:36:14.641Z,28.10
2022-10-28T02:37:14.609Z,26.00
2022-10-28T02:38:14.604Z,27.30
2022-10-28T02:39:14.601Z,26.80
2022-10-28T02:40:14.588Z,20.20
2022-10-28T02:41:14.598Z,18.20
2022-10-28T02:42:15.277Z,20.00
2022-10-28T02:43:14.572Z,21.70
2022-10-28T02:44:14.582Z,20.10
2022-10-28T02:45:14.569Z,22.00
2022-10-28T02:46:14.570Z,19.30
2022-10-28T02:47:14.541Z,16.40
2022-10-28T02:48:14.537Z,18.10
2022-10-28T02:49:14.525Z,16.90
2022-10-28T02:50:15.246Z,18.50
2022-10-28T02:51:14.529Z,19.10
2022-10-28T02:52:14.528Z,19.20
2022-10-28T02:53:14.523Z,15.80
2022-10-28T02:54:15.232Z,23.30
2022-10-28T02:55:14.584Z,19.20
2022-10-28T02:56:14.496Z,18.40
2022-10-28T02:57:14.538Z,17.10
2022-10-28T02:58:14.468Z,18.60
2022-10-28T02:59:14.474Z,18.50
2022-10-28T03:00:14.468Z,15.50
2022-10-28T03:01:14.649Z,15.80
2022-10-28T03:02:14.479Z,15.00
2022-10-28T03:03:14.450Z,19.50
2022-10-28T03:04:14.424Z,14.20
2022-10-28T03:05:14.432Z,18.70
2022-10-28T03:06:14.499Z,15.50
2022-10-28T03:07:14.452Z,18.40
2022-10-28T03:08:14.408Z,13.20
2022-10-28T03:09:14.401Z,16.10
2022-10-28T03:10:14.408Z,13.90
2022-10-28T03:11:14.386Z,13.40
2022-10-28T03:12:14.387Z,13.70
2022-10-28T03:13:14.369Z,13.90
2022-10-28T03:14:15.431Z,18.30
2022-10-28T03:15:14.359Z,15.80
2022-10-28T03:16:14.349Z,12.80
2022-10-28T03:17:14.360Z,12.00
2022-10-28T03:18:14.336Z,12.80
2022-10-28T03:19:14.345Z,16.10
2022-10-28T03:20:14.336Z,14.80
2022-10-28T03:21:14.317Z,15.30
2022-10-28T03:22:14.345Z,17.70
2022-10-28T03:23:14.317Z,19.00
2022-10-28T03:24:14.328Z,14.80
2022-10-28T03:25:14.296Z,18.50
2022-10-28T03:26:14.289Z,20.00
2022-10-28T03:27:14.318Z,14.70
2022-10-28T03:28:14.281Z,16.70
2022-10-28T03:29:14.269Z,16.70
2022-10-28T03:30:14.287Z,18.50
2022-10-28T03:31:14.258Z,18.40
2022-10-28T03:32:14.370Z,18.20
2022-10-28T03:33:14.265Z,17.50
2022-10-28T03:34:14.236Z,23.60
2022-10-28T03:35:14.233Z,17.40
2022-10-28T03:36:14.239Z,20.00
2022-10-28T03:37:14.221Z,17.30
2022-10-28T03:38:14.224Z,19.00
2022-10-28T03:39:14.216Z,21.30
2022-10-28T03:40:14.192Z,18.80
2022-10-28T03:41:14.193Z,21.00
2022-10-28T03:42:14.176Z,17.50
2022-10-28T03:43:14.676Z,20.70
2022-10-28T03:44:14.181Z,22.20
2022-10-28T03:45:14.179Z,12.10
2022-10-28T03:46:14.160Z,21.10
2022-10-28T03:47:14.148Z,22.00
2022-10-28T03:48:14.153Z,19.10
2022-10-28T03:49:14.137Z,19.10
2022-10-28T03:50:14.141Z,18.30
2022-10-28T03:51:14.144Z,21.80
2022-10-28T03:52:14.124Z,18.50
2022-10-28T03:53:14.110Z,20.40
2022-10-28T03:54:14.134Z,21.40
2022-10-28T03:55:14.092Z,18.70
2022-10-28T03:56:14.093Z,20.00
2022-10-28T03:57:14.098Z,21.60
2022-10-28T03:58:14.081Z,24.10
2022-10-28T03:59:16.379Z,24.20
2022-10-28T04:00:15.123Z,23.00
2022-10-28T04:01:14.132Z,23.20
2022-10-28T04:02:15.132Z,21.90
2022-10-28T04:03:14.055Z,20.70
2022-10-28T04:04:14.072Z,18.40
2022-10-28T04:05:14.044Z,18.40
2022-10-28T04:06:14.036Z,16.40
2022-10-28T04:07:14.050Z,20.90
2022-10-28T04:08:14.026Z,18.70
2022-10-28T04:09:14.028Z,17.70
2022-10-28T04:10:14.044Z,17.90
2022-10-28T04:11:14.000Z,17.70
2022-10-28T04:12:15.001Z,19.90
2022-10-28T04:13:14.011Z,15.90
2022-10-28T04:14:13.984Z,18.80
2022-10-28T04:15:13.997Z,16.80
2022-10-28T04:16:14.005Z,21.40
2022-10-28T04:17:13.975Z,18.50
2022-10-28T04:18:13.981Z,16.80
2022-10-28T04:19:13.960Z,17.20
2022-10-28T04:20:13.969Z,16.80
2022-10-28T04:21:13.953Z,15.40
2022-10-28T04:22:13.944Z,17.10
2022-10-28T04:23:13.934Z,16.30
2022-10-28T04:24:13.945Z,12.20
2022-10-28T04:26:13.921Z,17.10
2022-10-28T04:27:13.946Z,14.90
2022-10-28T04:28:13.912Z,15.50
2022-10-28T04:29:13.892Z,14.20
2022-10-28T04:30:13.897Z,14.20
2022-10-28T04:31:13.890Z,13.80
2022-10-28T04:32:13.877Z,19.90
2022-10-28T04:33:13.877Z,18.50
2022-10-28T04:34:13.885Z,15.30
2022-10-28T04:35:13.873Z,21.30
2022-10-28T04:36:13.862Z,15.40
2022-10-28T04:37:18.252Z,16.10
2022-10-28T04:38:14.888Z,18.30
2022-10-28T04:39:13.832Z,21.40
2022-10-28T04:40:13.853Z,17.50
2022-10-28T04:41:13.824Z,17.60
2022-10-28T04:42:14.817Z,17.60
2022-10-28T04:43:13.819Z,16.60
2022-10-28T04:44:13.806Z,17.20
2022-10-28T04:45:13.818Z,20.70
2022-10-28T04:46:13.838Z,19.00
2022-10-28T04:47:13.781Z,18.70
2022-10-28T04:48:13.778Z,17.60
2022-10-28T04:49:13.793Z,25.50
2022-10-28T04:50:13.773Z,22.30
2022-10-28T04:51:13.762Z,18.10
2022-10-28T04:52:15.746Z,16.90
2022-10-28T04:53:13.748Z,21.80
2022-10-28T04:54:13.739Z,20.50
2022-10-28T04:55:13.739Z,21.70
2022-10-28T04:56:13.739Z,19.00
2022-10-28T04:57:13.752Z,21.60
2022-10-28T04:58:13.706Z,19.20
2022-10-28T04:59:13.700Z,20.70
2022-10-28T05:00:13.691Z,20.90
2022-10-28T05:01:13.840Z,17.80
2022-10-28T05:02:13.866Z,20.70
2022-10-28T05:03:13.679Z,18.30
2022-10-28T05:04:13.674Z,19.50
2022-10-28T05:05:13.725Z,18.60
2022-10-28T05:06:13.672Z,18.40
2022-10-28T05:07:13.671Z,19.60
2022-10-28T05:08:13.638Z,19.20
2022-10-28T05:09:13.634Z,14.40
2022-10-28T05:10:13.650Z,15.30
2022-10-28T05:11:13.653Z,22.00
2022-10-28T05:12:13.617Z,20.90
2022-10-28T05:13:13.608Z,20.80
2022-10-28T05:14:13.614Z,19.00
2022-10-28T05:15:13.589Z,22.90
2022-10-28T05:16:13.618Z,20.50
2022-10-28T05:17:13.609Z,19.00
2022-10-28T05:18:13.578Z,14.90
2022-10-28T05:19:13.582Z,14.00
2022-10-28T05:20:13.574Z,18.40
2022-10-28T05:21:13.550Z,16.30
2022-10-28T05:22:13.581Z,19.70
2022-10-28T05:23:13.545Z,20.70
2022-10-28T05:24:13.538Z,21.00
2022-10-28T05:25:13.557Z,21.70
2022-10-28T05:26:13.529Z,19.40
2022-10-28T05:27:13.549Z,21.20
2022-10-28T05:28:13.509Z,16.60
2022-10-28T05:29:13.506Z,17.10
2022-10-28T05:30:13.560Z,17.50
2022-10-28T05:31:13.492Z,22.80
2022-10-28T05:32:13.486Z,16.60
2022-10-28T05:33:13.494Z,17.90
2022-10-28T05:34:13.473Z,18.40
2022-10-28T05:35:13.470Z,23.70
2022-10-28T05:36:13.462Z,16.50
2022-10-28T05:37:13.462Z,14.80
2022-10-28T05:38:13.448Z,16.80
2022-10-28T05:39:13.477Z,24.00
2022-10-28T05:40:13.439Z,21.50
2022-10-28T05:41:13.426Z,22.20
2022-10-28T05:42:13.430Z,19.30
2022-10-28T05:43:13.430Z,21.60
2022-10-28T05:44:13.415Z,22.20
2022-10-28T05:45:13.411Z,25.20
2022-10-28T05:46:13.392Z,23.20
2022-10-28T05:47:13.388Z,23.00
2022-10-28T05:48:13.411Z,20.40
2022-10-28T05:49:13.370Z,21.60
2022-10-28T05:50:13.387Z,24.30
2022-10-28T05:51:13.383Z,20.50
2022-10-28T05:52:13.358Z,22.80
2022-10-28T05:53:13.364Z,23.00
2022-10-28T05:54:13.377Z,19.00
2022-10-28T05:55:13.334Z,20.60
2022-10-28T05:56:13.330Z,22.90
2022-10-28T05:57:13.333Z,20.90
2022-10-28T05:58:13.317Z,24.90
2022-10-28T05:59:13.329Z,21.20
2022-10-28T06:00:13.307Z,20.70
2022-10-28T06:01:13.385Z,18.80
2022-10-28T06:02:13.286Z,23.40
2022-10-28T06:03:13.291Z,24.60
2022-10-28T06:04:13.302Z,20.20
2022-10-28T06:05:13.283Z,20.80
2022-10-28T06:06:13.286Z,22.30
2022-10-28T06:07:13.253Z,20.60
2022-10-28T06:08:13.245Z,21.20
2022-10-28T06:09:13.244Z,20.10
2022-10-28T06:10:13.257Z,17.60
2022-10-28T06:11:11.689Z,19.50
2022-10-28T06:12:11.710Z,20.40
2022-10-28T06:13:11.683Z,20.70
2022-10-28T06:14:11.671Z,21.50
2022-10-28T06:15:11.702Z,18.90
2022-10-28T06:16:11.673Z,22.70
2022-10-28T06:17:11.656Z,17.80
2022-10-28T06:18:15.408Z,21.30
2022-10-28T06:19:12.646Z,17.80
2022-10-28T06:20:11.659Z,17.50
2022-10-28T06:21:11.672Z,15.40
2022-10-28T06:22:11.626Z,17.80
2022-10-28T06:23:11.668Z,18.70
2022-10-28T06:24:38.773Z,30.40
2022-10-28T06:25:11.636Z,27.20
2022-10-28T06:26:11.620Z,25.60
2022-10-28T06:27:11.593Z,30.40
2022-10-28T06:28:11.604Z,23.10
2022-10-28T06:29:11.618Z,23.00
2022-10-28T06:30:11.588Z,31.10
2022-10-28T06:31:11.596Z,27.50
2022-10-28T06:32:11.567Z,32.10
2022-10-28T06:33:11.566Z,33.70
2022-10-28T06:34:11.559Z,30.10
2022-10-28T06:35:11.556Z,29.60
2022-10-28T06:36:11.572Z,25.80
2022-10-28T06:37:11.541Z,26.00
2022-10-28T06:38:11.541Z,26.90
2022-10-28T06:39:11.523Z,34.70
2022-10-28T06:40:11.541Z,28.80
2022-10-28T06:41:11.559Z,24.80
2022-10-28T06:42:11.521Z,25.80
2022-10-28T06:43:11.526Z,24.70
2022-10-28T06:44:11.508Z,24.30
2022-10-28T06:45:11.496Z,18.00
2022-10-28T06:46:11.492Z,20.80
2022-10-28T06:47:13.024Z,21.50
2022-10-28T06:48:13.003Z,19.30
2022-10-28T06:49:12.994Z,22.50
2022-10-28T06:50:13.219Z,23.30
2022-10-28T06:51:12.980Z,20.10
2022-10-28T06:52:12.981Z,22.90
2022-10-28T06:53:12.990Z,22.30
2022-10-28T06:54:12.995Z,35.50
2022-10-28T06:55:12.964Z,25.00
2022-10-28T06:56:12.951Z,24.10
2022-10-28T06:57:13.833Z,26.80
2022-10-28T06:58:12.947Z,26.10
2022-10-28T06:59:12.938Z,22.50
2022-10-28T07:00:12.926Z,18.30
2022-10-28T07:01:13.941Z,24.60
2022-10-28T07:02:13.163Z,23.00
2022-10-28T07:03:12.997Z,21.70
2022-10-28T07:04:12.923Z,24.40
2022-10-28T07:05:12.931Z,19.40
2022-10-28T07:07:12.947Z,21.50
2022-10-28T07:08:13.889Z,17.20
2022-10-28T07:09:12.876Z,19.90
2022-10-28T07:10:12.875Z,17.60
2022-10-28T07:11:12.864Z,20.00
2022-10-28T07:12:12.953Z,17.60
2022-10-28T07:13:12.875Z,17.80
2022-10-28T07:14:12.844Z,19.10
2022-10-28T07:15:12.837Z,18.70
2022-10-28T07:16:12.829Z,19.10
2022-10-28T07:17:12.839Z,19.90
2022-10-28T07:18:12.840Z,22.20
2022-10-28T07:19:12.876Z,19.00
2022-10-28T07:20:12.839Z,19.30
2022-10-28T07:21:12.813Z,15.20
2022-10-28T07:22:12.805Z,16.10
2022-10-28T07:23:12.849Z,20.40
2022-10-28T07:24:12.789Z,19.10
2022-10-28T07:25:12.797Z,17.40
2022-10-28T07:26:12.774Z,15.70
2022-10-28T07:27:12.779Z,18.90
2022-10-28T07:28:12.779Z,18.00
2022-10-28T07:29:12.774Z,22.20
2022-10-28T07:30:12.778Z,13.30
2022-10-28T07:31:12.765Z,15.80
2022-10-28T07:32:12.747Z,19.10
2022-10-28T07:33:12.794Z,17.80
2022-10-28T07:34:12.752Z,18.00
2022-10-28T07:35:12.732Z,16.80
2022-10-28T07:36:12.719Z,19.30
2022-10-28T07:37:12.701Z,16.60
2022-10-28T07:38:12.711Z,15.90
2022-10-28T07:39:12.732Z,14.10
2022-10-28T07:40:13.364Z,16.10
2022-10-28T07:41:12.740Z,15.30
2022-10-28T07:42:12.681Z,16.00
2022-10-28T07:43:12.749Z,15.60
2022-10-28T07:44:12.660Z,17.70
2022-10-28T07:45:12.680Z,13.30
2022-10-28T07:46:12.640Z,18.70
2022-10-28T07:47:12.638Z,17.40
2022-10-28T07:48:12.636Z,16.40
2022-10-28T07:49:12.653Z,14.20
2022-10-28T07:50:12.617Z,14.80
2022-10-28T07:51:12.615Z,14.20
2022-10-28T07:52:12.615Z,13.10
2022-10-28T07:53:12.763Z,15.90
2022-10-28T07:54:12.606Z,15.90
2022-10-28T07:55:12.610Z,16.70
2022-10-28T07:56:13.728Z,19.60
2022-10-28T07:57:12.576Z,14.30
2022-10-28T07:58:12.566Z,15.90
2022-10-28T07:59:12.574Z,18.60
2022-10-28T08:00:12.550Z,15.30
2022-10-28T08:01:12.763Z,17.50
2022-10-28T08:02:12.589Z,13.50
2022-10-28T08:03:12.521Z,15.90
2022-10-28T08:04:12.527Z,18.00
2022-10-28T08:05:12.537Z,17.60
2022-10-28T08:06:12.535Z,15.70
2022-10-28T08:07:12.512Z,14.50
2022-10-28T08:08:12.501Z,15.70
2022-10-28T08:09:12.466Z,17.40
2022-10-28T08:10:12.489Z,18.90
2022-10-28T08:11:12.555Z,18.60
2022-10-28T08:12:12.465Z,25.50
2022-10-28T08:13:12.463Z,19.70
2022-10-28T08:14:12.445Z,14.00
2022-10-28T08:15:12.452Z,20.50
2022-10-28T08:16:12.442Z,39.60
2022-10-28T08:17:12.417Z,19.50
2022-10-28T08:18:12.411Z,12.60
2022-10-28T08:19:12.408Z,26.30
2022-10-28T08:20:12.411Z,29.30
2022-10-28T08:21:12.392Z,20.50
2022-10-28T08:22:12.365Z,18.40
2022-10-28T08:23:12.373Z,16.70
2022-10-28T08:24:12.363Z,23.90
2022-10-28T08:25:12.380Z,27.80
2022-10-28T08:26:12.356Z,27.20
2022-10-28T08:27:12.350Z,19.70
2022-10-28T08:28:12.345Z,14.50
2022-10-28T08:29:12.327Z,13.50
2022-10-28T08:30:12.322Z,17.20
2022-10-28T08:31:12.538Z,17.90
2022-10-28T08:32:12.337Z,34.80
2022-10-28T08:33:12.317Z,23.40
2022-10-28T08:34:12.326Z,14.60
2022-10-28T08:35:12.294Z,17.00
2022-10-28T08:36:12.314Z,17.20
2022-10-28T08:37:12.444Z,16.10
2022-10-28T08:38:12.270Z,12.10
2022-10-28T08:39:12.317Z,14.80
2022-10-28T08:40:12.265Z,31.80
2022-10-28T08:41:12.290Z,48.20
2022-10-28T08:42:12.246Z,30.40
2022-10-28T08:43:12.287Z,18.40
2022-10-28T08:44:12.259Z,15.00
2022-10-28T08:45:15.593Z,15.80
2022-10-28T08:46:13.239Z,14.80
2022-10-28T08:47:12.235Z,15.60
2022-10-28T08:48:12.228Z,14.30
2022-10-28T08:49:12.210Z,14.90
2022-10-28T08:50:12.833Z,11.80
2022-10-28T08:51:12.192Z,17.20
2022-10-28T08:52:12.201Z,14.20
2022-10-28T08:53:12.202Z,15.00
2022-10-28T08:54:12.243Z,14.20
2022-10-28T08:55:12.178Z,14.00
2022-10-28T08:56:12.200Z,11.70
2022-10-28T08:57:15.748Z,12.10
2022-10-28T08:58:14.150Z,10.70
2022-10-28T08:59:12.161Z,11.80
2022-10-28T09:00:12.138Z,10.80
2022-10-28T09:01:12.225Z,11.00
2022-10-28T09:02:12.177Z,15.10
2022-10-28T09:03:12.186Z,12.90
2022-10-28T09:04:12.164Z,17.30
2022-10-28T09:05:12.132Z,12.90
2022-10-28T09:06:12.108Z,9.40
2022-10-28T09:07:12.080Z,10.70
2022-10-28T09:08:12.088Z,11.50
2022-10-28T09:09:12.104Z,13.60
2022-10-28T09:10:12.087Z,14.50
2022-10-28T09:11:12.069Z,9.30
2022-10-28T09:12:12.065Z,14.10
2022-10-28T09:13:12.036Z,11.10
2022-10-28T09:14:12.032Z,12.40
2022-10-28T09:15:12.144Z,12.70
2022-10-28T09:16:15.191Z,13.70
2022-10-28T09:17:12.818Z,12.50
2022-10-28T09:18:12.018Z,10.70
2022-10-28T09:19:12.014Z,11.30
2022-10-28T09:20:12.026Z,11.60
2022-10-28T09:21:12.009Z,11.20
2022-10-28T09:22:11.988Z,10.70
2022-10-28T09:23:11.977Z,13.00
2022-10-28T09:24:11.981Z,11.10
2022-10-28T09:25:12.020Z,12.70
2022-10-28T09:26:11.971Z,12.50
2022-10-28T09:27:11.944Z,9.50
2022-10-28T09:28:11.949Z,10.50
2022-10-28T09:29:12.859Z,12.90
2022-10-28T09:30:11.960Z,13.40
2022-10-28T09:31:11.928Z,9.70
2022-10-28T09:32:11.949Z,8.50
2022-10-28T09:33:11.949Z,9.30
2022-10-28T09:34:11.906Z,9.50
2022-10-28T09:35:11.930Z,13.40
2022-10-28T09:36:11.942Z,10.40
2022-10-28T09:37:11.887Z,11.80
2022-10-28T09:38:12.925Z,12.40
2022-10-28T09:39:11.903Z,10.60
2022-10-28T09:40:11.899Z,10.70
2022-10-28T09:41:11.882Z,10.10
2022-10-28T09:42:11.891Z,16.90
2022-10-28T09:43:11.889Z,16.30
2022-10-28T09:44:12.157Z,10.50
2022-10-28T09:45:11.858Z,11.50
2022-10-28T09:46:11.883Z,7.90
2022-10-28T09:47:11.880Z,14.70
2022-10-28T09:48:11.873Z,13.00
2022-10-28T09:49:11.852Z,11.40
2022-10-28T09:50:11.859Z,9.30
2022-10-28T09:51:11.852Z,8.40
2022-10-28T09:52:15.277Z,14.30
2022-10-28T09:53:12.821Z,10.90
2022-10-28T09:54:11.836Z,7.40
2022-10-28T09:55:11.812Z,9.80
2022-10-28T09:56:11.821Z,12.30
2022-10-28T09:57:14.951Z,10.50
2022-10-28T09:58:12.827Z,10.80
2022-10-28T09:59:11.786Z,12.60
2022-10-28T10:00:11.791Z,9.00
2022-10-28T10:01:11.838Z,11.90
2022-10-28T10:02:11.802Z,9.30
2022-10-28T10:03:11.769Z,12.00
2022-10-28T10:04:11.768Z,12.10
2022-10-28T10:05:16.057Z,11.20
2022-10-28T10:06:13.892Z,11.50
2022-10-28T10:07:11.785Z,9.10
2022-10-28T10:08:11.756Z,8.40
2022-10-28T10:09:11.787Z,11.60
2022-10-28T10:10:11.759Z,9.90
2022-10-28T10:11:11.756Z,6.00
2022-10-28T10:12:11.778Z,7.80
2022-10-28T10:13:11.751Z,11.50
2022-10-28T10:14:11.726Z,10.60
2022-10-28T10:15:11.721Z,12.10
2022-10-28T10:16:11.829Z,10.30
2022-10-28T10:17:11.735Z,8.00
2022-10-28T10:18:11.738Z,11.20
2022-10-28T10:19:11.758Z,9.80
2022-10-28T10:20:11.696Z,8.20
2022-10-28T10:21:11.720Z,11.20
2022-10-28T10:22:11.716Z,17.60
2022-10-28T10:23:11.703Z,8.80
2022-10-28T10:24:11.679Z,9.40
2022-10-28T10:25:11.677Z,10.50
2022-10-28T10:26:12.581Z,9.10
2022-10-28T10:27:11.660Z,12.10
2022-10-28T10:28:11.652Z,11.00
2022-10-28T10:29:11.649Z,11.30
2022-10-28T10:30:11.653Z,11.60
2022-10-28T10:31:11.633Z,7.90
2022-10-28T10:32:11.678Z,9.60
2022-10-28T10:33:11.657Z,7.50
2022-10-28T10:34:11.657Z,10.60
2022-10-28T10:35:11.608Z,9.60
2022-10-28T10:36:11.621Z,14.60
2022-10-28T10:37:12.454Z,12.40
2022-10-28T10:38:11.640Z,12.70
2022-10-28T10:39:11.600Z,9.50
2022-10-28T10:40:11.617Z,10.20
2022-10-28T10:41:11.609Z,10.10
2022-10-28T10:42:11.602Z,10.00
2022-10-28T10:43:14.086Z,12.20
2022-10-28T10:44:12.600Z,9.20
2022-10-28T10:45:11.535Z,13.30
2022-10-28T10:46:11.566Z,10.30
2022-10-28T10:47:11.560Z,11.90
2022-10-28T10:48:11.537Z,11.90
2022-10-28T10:49:11.535Z,10.80
2022-10-28T10:50:11.745Z,9.10
2022-10-28T10:51:11.517Z,8.70
2022-10-28T10:52:11.541Z,8.40
2022-10-28T10:53:11.477Z,8.70
2022-10-28T10:54:11.523Z,7.90
2022-10-28T10:55:11.479Z,9.00
2022-10-28T10:56:12.377Z,12.50
2022-10-28T10:57:11.494Z,12.40
2022-10-28T10:58:11.508Z,7.90
2022-10-28T10:59:11.459Z,11.70
2022-10-28T11:00:11.507Z,8.20
2022-10-28T11:01:11.498Z,13.30
2022-10-28T11:02:11.628Z,9.70
2022-10-28T11:03:11.449Z,11.50
2022-10-28T11:04:12.229Z,14.60
2022-10-28T11:05:11.441Z,7.50
2022-10-28T11:06:23.242Z,8.40
2022-10-28T11:07:13.413Z,9.50
2022-10-28T11:08:11.434Z,11.30
2022-10-28T11:09:11.491Z,10.50
2022-10-28T11:10:11.503Z,12.80
2022-10-28T11:11:11.441Z,10.00
2022-10-28T11:12:11.382Z,11.50
2022-10-28T11:13:11.374Z,11.10
2022-10-28T11:14:11.373Z,9.60
2022-10-28T11:15:11.415Z,9.20
2022-10-28T11:16:11.374Z,7.70
2022-10-28T11:17:11.357Z,8.90
2022-10-28T11:18:11.334Z,7.90
2022-10-28T11:19:11.341Z,13.10
2022-10-28T11:20:11.320Z,9.70
2022-10-28T11:21:11.426Z,7.80
2022-10-28T11:22:11.375Z,9.70
2022-10-28T11:23:11.329Z,7.50
2022-10-28T11:24:11.288Z,8.40
2022-10-28T11:25:11.286Z,7.20
2022-10-28T11:26:11.312Z,8.10
2022-10-28T11:27:11.317Z,9.90
2022-10-28T11:28:11.306Z,11.20
2022-10-28T11:29:11.321Z,7.90
2022-10-28T11:30:11.307Z,5.20
2022-10-28T11:31:11.292Z,8.40
2022-10-28T11:32:11.261Z,11.80
2022-10-28T11:33:29.509Z,8.40
2022-10-28T11:34:13.254Z,10.40
2022-10-28T11:35:11.303Z,10.30
2022-10-28T11:36:11.252Z,7.20
2022-10-28T11:37:11.228Z,8.40
2022-10-28T11:38:11.247Z,10.10
2022-10-28T11:39:11.275Z,9.90
2022-10-28T11:40:11.223Z,12.60
2022-10-28T11:41:11.200Z,10.50
2022-10-28T11:42:11.219Z,9.50
2022-10-28T11:43:11.259Z,9.80
2022-10-28T11:44:11.207Z,7.70
2022-10-28T11:45:11.225Z,9.50
2022-10-28T11:46:11.225Z,9.50
2022-10-28T11:47:11.308Z,9.20
2022-10-28T11:48:11.192Z,9.00
2022-10-28T11:49:11.143Z,6.60
2022-10-28T11:50:11.183Z,9.40
2022-10-28T11:51:11.151Z,10.20
2022-10-28T11:52:11.107Z,9.40
2022-10-28T11:53:11.151Z,9.80
2022-10-28T11:54:11.183Z,10.20
2022-10-28T11:55:11.123Z,7.40
2022-10-28T11:56:11.147Z,10.40
2022-10-28T11:57:11.103Z,10.00
2022-10-28T11:58:11.123Z,9.50
2022-10-28T11:59:11.082Z,9.40
2022-10-28T12:00:11.088Z,9.60
2022-10-28T12:01:11.160Z,13.80
2022-10-28T12:02:11.295Z,11.50
2022-10-28T12:03:11.112Z,9.30
2022-10-28T12:04:11.035Z,10.90
2022-10-28T12:05:11.061Z,11.00
2022-10-28T12:06:11.063Z,7.40
2022-10-28T12:07:11.124Z,13.00
2022-10-28T12:08:11.021Z,8.70
2022-10-28T12:09:11.050Z,10.20
2022-10-28T12:10:12.169Z,11.10
2022-10-28T12:11:11.023Z,9.20
2022-10-28T12:12:10.990Z,10.80
2022-10-28T12:13:11.023Z,12.00
2022-10-28T12:14:10.987Z,11.80
2022-10-28T12:15:11.000Z,9.50
2022-10-28T12:16:10.970Z,11.60
2022-10-28T12:17:10.953Z,10.80
2022-10-28T12:18:12.045Z,12.00
2022-10-28T12:19:11.020Z,10.90
2022-10-28T12:20:10.941Z,12.90
2022-10-28T12:21:11.040Z,9.20
2022-10-28T12:22:10.997Z,7.70
2022-10-28T12:23:10.958Z,9.90
2022-10-28T12:24:10.976Z,10.30
2022-10-28T12:25:11.072Z,9.20
2022-10-28T12:26:10.948Z,8.90
2022-10-28T12:27:15.304Z,10.00
2022-10-28T12:28:12.946Z,8.60
2022-10-28T12:29:10.957Z,9.90
2022-10-28T12:30:10.888Z,11.70
2022-10-28T12:31:10.871Z,10.80
2022-10-28T12:32:10.996Z,11.10
2022-10-28T12:33:10.870Z,20.30
2022-10-28T12:34:10.925Z,12.20
2022-10-28T12:35:10.871Z,8.50
2022-10-28T12:36:10.901Z,13.90
2022-10-28T12:37:10.850Z,14.00
2022-10-28T12:38:10.851Z,11.70
2022-10-28T12:39:10.887Z,9.90
2022-10-28T12:40:10.856Z,9.90
2022-10-28T12:41:10.848Z,11.40
2022-10-28T12:42:10.823Z,9.00
2022-10-28T12:43:10.844Z,11.20
2022-10-28T12:44:10.811Z,13.20
2022-10-28T12:45:10.827Z,11.40
2022-10-28T12:46:10.838Z,10.10
2022-10-28T12:47:10.836Z,10.30
2022-10-28T12:48:10.801Z,9.40
2022-10-28T12:49:10.801Z,10.50
2022-10-28T12:50:10.895Z,10.20
2022-10-28T12:51:10.813Z,11.60
2022-10-28T12:52:10.765Z,11.70
2022-10-28T12:53:10.795Z,11.60
2022-10-28T12:54:10.802Z,9.60
2022-10-28T12:55:10.898Z,8.60
2022-10-28T12:56:10.815Z,9.80
2022-10-28T12:57:10.763Z,11.00